Time,TemperatureF,DewpointF,PressureIn,WindDirection,WindDirectionDegrees,WindSpeedMPH,WindSpeedGustMPH,Humidity,HourlyPrecipIn,Conditions,Clouds,dailyrainin,SolarRadiationWatts/m^2,SoftwareType,DateUTC
2013-02-19 00:02:00,63.0,34.0,-100.00,ESE,110,5.0,10.0,34,0.00,,,0.00,577.000000,,2013-02-19 00:02:00,
2013-02-19 00:12:00,63.0,34.0,-100.00,ESE,110,5.0,10.0,34,0.00,,,0.00,577.000000,,2013-02-19 00:12:00,
2013-02-19 00:22:00,63.0,34.0,-100.00,ESE,110,5.0,10.0,34,0.00,,,0.00,577.000000,,2013-02-19 00:22:00,
2013-02-19 00:32:00,63.0,34.0,-100.00,ESE,110,5.0,10.0,34,0.00,,,0.00,577.000000,,2013-02-19 00:32:00,
2013-02-19 00:54:00,58.0,33.0,-100.00,ESE,106,3.0,9.0,39,0.00,,,0.00,197.000000,,2013-02-19 00:54:00,
2013-02-19 01:03:00,58.0,33.0,-100.00,ESE,106,3.0,9.0,39,0.00,,,0.00,197.000000,,2013-02-19 01:03:00,
2013-02-19 01:12:00,58.0,33.0,-100.00,ESE,106,3.0,9.0,39,0.00,,,0.00,197.000000,,2013-02-19 01:12:00,
2013-02-19 01:22:00,58.0,33.0,-100.00,ESE,106,3.0,9.0,39,0.00,,,0.00,197.000000,,2013-02-19 01:22:00,
2013-02-19 01:32:00,58.0,33.0,-100.00,ESE,106,3.0,9.0,39,0.00,,,0.00,197.000000,,2013-02-19 01:32:00,
2013-02-19 01:55:00,53.0,37.0,-100.00,SE,130,0.0,7.0,54,0.00,,,0.00,66.000000,,2013-02-19 01:55:00,
2013-02-19 02:02:00,53.0,37.0,-100.00,SE,130,0.0,7.0,54,0.00,,,0.00,66.000000,,2013-02-19 02:02:00,
2013-02-19 02:12:00,53.0,37.0,-100.00,SE,130,0.0,7.0,54,0.00,,,0.00,66.000000,,2013-02-19 02:12:00,
2013-02-19 02:22:00,53.0,37.0,-100.00,SE,130,0.0,7.0,54,0.00,,,0.00,66.000000,,2013-02-19 02:22:00,
2013-02-19 02:32:00,53.0,37.0,-100.00,SE,130,0.0,7.0,54,0.00,,,0.00,66.000000,,2013-02-19 02:32:00,
2013-02-19 02:54:00,46.0,35.0,-100.00,SW,235,2.0,6.0,66,0.00,,,0.00,0.000000,,2013-02-19 02:54:00,
2013-02-19 03:04:00,46.0,35.0,-100.00,SW,235,2.0,6.0,66,0.00,,,0.00,0.000000,,2013-02-19 03:04:00,
2013-02-19 03:13:00,46.0,35.0,-100.00,SW,235,2.0,6.0,66,0.00,,,0.00,0.000000,,2013-02-19 03:13:00,
2013-02-19 03:22:00,46.0,35.0,-100.00,SW,235,2.0,6.0,66,0.00,,,0.00,0.000000,,2013-02-19 03:22:00,
2013-02-19 03:32:00,46.0,35.0,-100.00,SW,235,2.0,6.0,66,0.00,,,0.00,0.000000,,2013-02-19 03:32:00,
2013-02-19 03:54:00,44.0,34.0,-100.00,South,171,0.0,7.0,67,0.00,,,0.00,0.000000,,2013-02-19 03:54:00,
2013-02-19 04:02:00,44.0,34.0,-100.00,South,171,0.0,7.0,67,0.00,,,0.00,0.000000,,2013-02-19 04:02:00,
2013-02-19 04:13:00,44.0,34.0,-100.00,South,171,0.0,7.0,67,0.00,,,0.00,0.000000,,2013-02-19 04:13:00,
2013-02-19 04:22:00,44.0,34.0,-100.00,South,171,0.0,7.0,67,0.00,,,0.00,0.000000,,2013-02-19 04:22:00,
2013-02-19 04:32:00,44.0,34.0,-100.00,South,171,0.0,7.0,67,0.00,,,0.00,0.000000,,2013-02-19 04:32:00,
2013-02-19 05:02:00,41.0,36.0,-100.00,South,179,0.0,5.0,82,0.00,,,0.00,0.000000,,2013-02-19 05:02:00,
2013-02-19 05:12:00,41.0,36.0,-100.00,South,179,0.0,5.0,82,0.00,,,0.00,0.000000,,2013-02-19 05:12:00,
2013-02-19 05:22:00,41.0,36.0,-100.00,South,179,0.0,5.0,82,0.00,,,0.00,0.000000,,2013-02-19 05:22:00,
2013-02-19 05:32:00,41.0,36.0,-100.00,South,179,0.0,5.0,82,0.00,,,0.00,0.000000,,2013-02-19 05:32:00,
2013-02-19 05:52:00,42.0,33.0,-100.00,SW,220,0.0,6.0,71,0.00,,,0.00,0.000000,,2013-02-19 05:52:00,
2013-02-19 06:02:00,42.0,33.0,-100.00,SW,220,0.0,6.0,71,0.00,,,0.00,0.000000,,2013-02-19 06:02:00,
2013-02-19 06:11:00,42.0,33.0,-100.00,SW,220,0.0,6.0,71,0.00,,,0.00,0.000000,,2013-02-19 06:11:00,
2013-02-19 06:21:00,42.0,33.0,-100.00,SW,220,0.0,6.0,71,0.00,,,0.00,0.000000,,2013-02-19 06:21:00,
2013-02-19 06:32:00,42.0,33.0,-100.00,SW,220,0.0,6.0,71,0.00,,,0.00,0.000000,,2013-02-19 06:32:00,
2013-02-19 06:52:00,43.0,36.0,-100.00,SSW,212,0.0,4.0,76,0.00,,,0.00,0.000000,,2013-02-19 06:52:00,
2013-02-19 07:01:00,43.0,36.0,-100.00,SSW,212,0.0,4.0,76,0.00,,,0.00,0.000000,,2013-02-19 07:01:00,
2013-02-19 07:11:00,43.0,36.0,-100.00,SSW,212,0.0,4.0,76,0.00,,,0.00,0.000000,,2013-02-19 07:11:00,
2013-02-19 07:21:00,43.0,36.0,-100.00,SSW,212,0.0,4.0,76,0.00,,,0.00,0.000000,,2013-02-19 07:21:00,
2013-02-19 07:32:00,43.0,36.0,-100.00,SSW,212,0.0,4.0,76,0.00,,,0.00,0.000000,,2013-02-19 07:32:00,
2013-02-19 07:52:00,43.0,37.0,-100.00,WSW,255,0.0,5.0,78,0.00,,,0.00,0.000000,,2013-02-19 07:52:00,
2013-02-19 08:01:00,43.0,37.0,-100.00,WSW,255,0.0,5.0,78,0.00,,,0.00,0.000000,,2013-02-19 08:01:00,
2013-02-19 08:11:00,43.0,37.0,-100.00,WSW,255,0.0,5.0,78,0.00,,,0.00,0.000000,,2013-02-19 08:11:00,
2013-02-19 08:21:00,43.0,37.0,-100.00,WSW,255,0.0,5.0,78,0.00,,,0.00,0.000000,,2013-02-19 08:21:00,
2013-02-19 08:31:00,43.0,37.0,-100.00,WSW,255,0.0,5.0,78,0.00,,,0.00,0.000000,,2013-02-19 08:31:00,
2013-02-19 08:52:00,41.0,34.0,-100.00,East,101,2.0,7.0,75,0.00,,,0.00,0.000000,,2013-02-19 08:52:00,
2013-02-19 09:01:00,41.0,34.0,-100.00,East,101,2.0,7.0,75,0.00,,,0.00,0.000000,,2013-02-19 09:01:00,
2013-02-19 09:11:00,41.0,34.0,-100.00,East,101,2.0,7.0,75,0.00,,,0.00,0.000000,,2013-02-19 09:11:00,
2013-02-19 09:21:00,41.0,34.0,-100.00,East,101,2.0,7.0,75,0.00,,,0.00,0.000000,,2013-02-19 09:21:00,
2013-02-19 09:31:00,41.0,34.0,-100.00,East,101,2.0,7.0,75,0.00,,,0.00,0.000000,,2013-02-19 09:31:00,
2013-02-19 09:53:00,41.0,34.0,-100.00,WSW,243,3.0,9.0,76,0.00,,,0.00,0.000000,,2013-02-19 09:53:00,
2013-02-19 10:01:00,41.0,34.0,-100.00,WSW,243,3.0,9.0,76,0.00,,,0.00,0.000000,,2013-02-19 10:01:00,
2013-02-19 10:11:00,41.0,34.0,-100.00,WSW,243,3.0,9.0,76,0.00,,,0.00,0.000000,,2013-02-19 10:11:00,
2013-02-19 10:21:00,41.0,34.0,-100.00,WSW,243,3.0,9.0,76,0.00,,,0.00,0.000000,,2013-02-19 10:21:00,
2013-02-19 10:31:00,41.0,34.0,-100.00,WSW,243,3.0,9.0,76,0.00,,,0.00,0.000000,,2013-02-19 10:31:00,
2013-02-19 11:01:00,41.0,32.0,-100.00,SW,216,1.0,8.0,69,0.00,,,0.00,0.000000,,2013-02-19 11:01:00,
2013-02-19 11:11:00,41.0,32.0,-100.00,SW,216,1.0,8.0,69,0.00,,,0.00,0.000000,,2013-02-19 11:11:00,
2013-02-19 11:21:00,41.0,32.0,-100.00,SW,216,1.0,8.0,69,0.00,,,0.00,0.000000,,2013-02-19 11:21:00,
2013-02-19 11:31:00,41.0,32.0,-100.00,SW,216,1.0,8.0,69,0.00,,,0.00,0.000000,,2013-02-19 11:31:00,
2013-02-19 11:52:00,42.0,40.0,-100.00,NNW,342,4.0,7.0,91,0.00,,,0.00,0.000000,,2013-02-19 11:52:00,
2013-02-19 12:01:00,42.0,40.0,-100.00,NNW,342,4.0,7.0,91,0.00,,,0.00,0.000000,,2013-02-19 12:01:00,
2013-02-19 12:12:00,42.0,40.0,-100.00,NNW,342,4.0,7.0,91,0.00,,,0.00,0.000000,,2013-02-19 12:12:00,
2013-02-19 12:21:00,42.0,40.0,-100.00,NNW,342,4.0,7.0,91,0.00,,,0.00,0.000000,,2013-02-19 12:21:00,
2013-02-19 12:32:00,42.0,40.0,-100.00,NNW,342,4.0,7.0,91,0.00,,,0.00,0.000000,,2013-02-19 12:32:00,
2013-02-19 13:02:00,41.0,38.0,-100.00,West,276,0.0,6.0,89,0.00,,,0.00,0.000000,,2013-02-19 13:02:00,
2013-02-19 13:11:00,41.0,38.0,-100.00,West,276,0.0,6.0,89,0.00,,,0.00,0.000000,,2013-02-19 13:11:00,
2013-02-19 13:22:00,41.0,38.0,-100.00,West,276,0.0,6.0,89,0.00,,,0.00,0.000000,,2013-02-19 13:22:00,
2013-02-19 13:31:00,41.0,38.0,-100.00,West,276,0.0,6.0,89,0.00,,,0.00,0.000000,,2013-02-19 13:31:00,
2013-02-19 13:52:00,41.0,37.0,-100.00,North,354,0.0,5.0,87,0.00,,,0.00,0.000000,,2013-02-19 13:52:00,
2013-02-19 14:01:00,41.0,37.0,-100.00,North,354,0.0,5.0,87,0.00,,,0.00,0.000000,,2013-02-19 14:01:00,
2013-02-19 14:11:00,41.0,37.0,-100.00,North,354,0.0,5.0,87,0.00,,,0.00,0.000000,,2013-02-19 14:11:00,
2013-02-19 14:21:00,41.0,37.0,-100.00,North,354,0.0,5.0,87,0.00,,,0.00,0.000000,,2013-02-19 14:21:00,
2013-02-19 14:32:00,41.0,37.0,-100.00,North,354,0.0,5.0,87,0.00,,,0.00,0.000000,,2013-02-19 14:32:00,
2013-02-19 15:01:00,39.0,35.0,-100.00,NNW,341,1.0,6.0,85,0.00,,,0.00,0.000000,,2013-02-19 15:01:00,
2013-02-19 15:11:00,39.0,35.0,-100.00,NNW,341,1.0,6.0,85,0.00,,,0.00,0.000000,,2013-02-19 15:11:00,
2013-02-19 15:21:00,39.0,35.0,-100.00,NNW,341,1.0,6.0,85,0.00,,,0.00,0.000000,,2013-02-19 15:21:00,
2013-02-19 15:31:00,39.0,35.0,-100.00,NNW,341,1.0,6.0,85,0.00,,,0.00,0.000000,,2013-02-19 15:31:00,
2013-02-19 15:52:00,39.0,35.0,-100.00,NW,326,0.0,7.0,84,0.00,,,0.00,15.000000,,2013-02-19 15:52:00,
2013-02-19 16:01:00,39.0,35.0,-100.00,NW,326,0.0,7.0,84,0.00,,,0.00,15.000000,,2013-02-19 16:01:00,
2013-02-19 16:11:00,39.0,35.0,-100.00,NW,326,0.0,7.0,84,0.00,,,0.00,15.000000,,2013-02-19 16:11:00,
2013-02-19 16:21:00,39.0,35.0,-100.00,NW,326,0.0,7.0,84,0.00,,,0.00,15.000000,,2013-02-19 16:21:00,
2013-02-19 16:31:00,39.0,35.0,-100.00,NW,326,0.0,7.0,84,0.00,,,0.00,15.000000,,2013-02-19 16:31:00,
2013-02-19 16:52:00,40.0,32.0,-100.00,NNW,327,0.0,5.0,73,0.00,,,0.00,55.000000,,2013-02-19 16:52:00,
2013-02-19 17:01:00,40.0,32.0,-100.00,NNW,327,0.0,5.0,73,0.00,,,0.00,55.000000,,2013-02-19 17:01:00,
2013-02-19 17:11:00,40.0,32.0,-100.00,NNW,327,0.0,5.0,73,0.00,,,0.00,55.000000,,2013-02-19 17:11:00,
2013-02-19 17:21:00,40.0,32.0,-100.00,NNW,327,0.0,5.0,73,0.00,,,0.00,55.000000,,2013-02-19 17:21:00,
2013-02-19 17:31:00,40.0,32.0,-100.00,NNW,327,0.0,5.0,73,0.00,,,0.00,55.000000,,2013-02-19 17:31:00,
2013-02-19 17:52:00,42.0,35.0,-100.00,NNW,339,0.0,5.0,76,0.00,,,0.00,91.000000,,2013-02-19 17:52:00,
2013-02-19 18:01:00,42.0,35.0,-100.00,NNW,339,0.0,5.0,76,0.00,,,0.00,91.000000,,2013-02-19 18:01:00,
2013-02-19 18:11:00,42.0,35.0,-100.00,NNW,339,0.0,5.0,76,0.00,,,0.00,91.000000,,2013-02-19 18:11:00,
2013-02-19 18:21:00,42.0,35.0,-100.00,NNW,339,0.0,5.0,76,0.00,,,0.00,91.000000,,2013-02-19 18:21:00,
2013-02-19 18:31:00,42.0,35.0,-100.00,NNW,339,0.0,5.0,76,0.00,,,0.00,91.000000,,2013-02-19 18:31:00,
2013-02-19 18:52:00,44.0,34.0,-100.00,NNE,32,0.0,4.0,69,0.00,,,0.00,166.000000,,2013-02-19 18:52:00,
2013-02-19 19:01:00,44.0,34.0,-100.00,NNE,32,0.0,4.0,69,0.00,,,0.00,166.000000,,2013-02-19 19:01:00,
2013-02-19 19:11:00,44.0,34.0,-100.00,NNE,32,0.0,4.0,69,0.00,,,0.00,166.000000,,2013-02-19 19:11:00,
2013-02-19 19:21:00,44.0,34.0,-100.00,NNE,32,0.0,4.0,69,0.00,,,0.00,166.000000,,2013-02-19 19:21:00,
2013-02-19 19:31:00,44.0,34.0,-100.00,NNE,32,0.0,4.0,69,0.00,,,0.00,166.000000,,2013-02-19 19:31:00,
2013-02-19 19:52:00,46.0,35.0,-100.00,NNW,348,2.0,7.0,65,0.00,,,0.00,349.000000,,2013-02-19 19:52:00,
2013-02-19 20:01:00,46.0,35.0,-100.00,NNW,348,2.0,7.0,65,0.00,,,0.00,349.000000,,2013-02-19 20:01:00,
2013-02-19 20:11:00,46.0,35.0,-100.00,NNW,348,2.0,7.0,65,0.00,,,0.00,349.000000,,2013-02-19 20:11:00,
2013-02-19 20:21:00,46.0,35.0,-100.00,NNW,348,2.0,7.0,65,0.00,,,0.00,349.000000,,2013-02-19 20:21:00,
2013-02-19 20:31:00,46.0,35.0,-100.00,NNW,348,2.0,7.0,65,0.00,,,0.00,349.000000,,2013-02-19 20:31:00,
2013-02-19 20:52:00,45.0,34.0,-100.00,North,352,3.0,7.0,65,0.00,,,0.00,420.000000,,2013-02-19 20:52:00,
2013-02-19 21:01:00,45.0,34.0,-100.00,North,352,3.0,7.0,65,0.00,,,0.00,420.000000,,2013-02-19 21:01:00,
2013-02-19 21:11:00,45.0,34.0,-100.00,North,352,3.0,7.0,65,0.00,,,0.00,420.000000,,2013-02-19 21:11:00,
2013-02-19 21:21:00,45.0,34.0,-100.00,North,352,3.0,7.0,65,0.00,,,0.00,420.000000,,2013-02-19 21:21:00,
2013-02-19 21:31:00,45.0,34.0,-100.00,North,352,3.0,7.0,65,0.00,,,0.00,420.000000,,2013-02-19 21:31:00,
2013-02-19 21:52:00,45.0,38.0,-100.00,North,352,5.0,12.0,76,0.00,,,0.00,361.000000,,2013-02-19 21:52:00,
2013-02-19 22:01:00,45.0,38.0,-100.00,North,352,5.0,12.0,76,0.00,,,0.00,361.000000,,2013-02-19 22:01:00,
2013-02-19 22:11:00,45.0,38.0,-100.00,North,352,5.0,12.0,76,0.00,,,0.00,361.000000,,2013-02-19 22:11:00,
2013-02-19 22:21:00,45.0,38.0,-100.00,North,352,5.0,12.0,76,0.00,,,0.00,361.000000,,2013-02-19 22:21:00,
2013-02-19 22:31:00,45.0,38.0,-100.00,North,352,5.0,12.0,76,0.00,,,0.00,361.000000,,2013-02-19 22:31:00,
2013-02-19 22:52:00,41.0,37.0,-100.00,NNW,339,2.0,11.0,87,0.00,,,0.00,223.000000,,2013-02-19 22:52:00,
2013-02-19 23:01:00,41.0,37.0,-100.00,NNW,339,2.0,11.0,87,0.00,,,0.00,223.000000,,2013-02-19 23:01:00,
2013-02-19 23:11:00,41.0,37.0,-100.00,NNW,339,2.0,11.0,87,0.00,,,0.00,223.000000,,2013-02-19 23:11:00,
2013-02-19 23:21:00,41.0,37.0,-100.00,NNW,339,2.0,11.0,87,0.00,,,0.00,223.000000,,2013-02-19 23:21:00,
2013-02-19 23:31:00,41.0,37.0,-100.00,NNW,339,2.0,11.0,87,0.00,,,0.00,223.000000,,2013-02-19 23:31:00,
2013-02-19 23:52:00,43.0,39.0,-100.00,North,353,2.0,8.0,86,0.00,,,-99.99,102.000000,,2013-02-19 23:52:00,